sensor_id;sensor_type;location;lat;lon;timestamp;temperature;humidity
66740;DHT22;53653;52.188;8.602;2023-09-18T00:02:21;18.98;93.89
66740;DHT22;53653;52.188;8.602;2023-09-18T00:04:46;18.96;93.78
66740;DHT22;53653;52.188;8.602;2023-09-18T00:07:13;18.92;94.08
66740;DHT22;53653;52.188;8.602;2023-09-18T00:09:39;18.88;94.08
66740;DHT22;53653;52.188;8.602;2023-09-18T00:12:05;18.84;94.15
66740;DHT22;53653;52.188;8.602;2023-09-18T00:14:32;18.82;94.20
66740;DHT22;53653;52.188;8.602;2023-09-18T00:16:57;18.71;94.45
66740;DHT22;53653;52.188;8.602;2023-09-18T00:19:23;18.69;94.54
66740;DHT22;53653;52.188;8.602;2023-09-18T00:21:49;18.55;94.86
66740;DHT22;53653;52.188;8.602;2023-09-18T00:24:16;18.53;94.96
66740;DHT22;53653;52.188;8.602;2023-09-18T00:26:42;18.50;94.97
66740;DHT22;53653;52.188;8.602;2023-09-18T00:29:08;18.51;94.88
66740;DHT22;53653;52.188;8.602;2023-09-18T00:31:33;18.53;94.87
66740;DHT22;53653;52.188;8.602;2023-09-18T00:33:58;18.51;94.83
66740;DHT22;53653;52.188;8.602;2023-09-18T00:36:24;18.54;94.66
66740;DHT22;53653;52.188;8.602;2023-09-18T00:38:50;18.48;94.77
66740;DHT22;53653;52.188;8.602;2023-09-18T00:41:15;18.47;94.82
66740;DHT22;53653;52.188;8.602;2023-09-18T00:43:41;18.41;95.06
66740;DHT22;53653;52.188;8.602;2023-09-18T00:46:07;18.38;95.15
66740;DHT22;53653;52.188;8.602;2023-09-18T00:48:33;18.30;95.39
66740;DHT22;53653;52.188;8.602;2023-09-18T00:50:58;18.34;95.38
66740;DHT22;53653;52.188;8.602;2023-09-18T00:53:25;18.27;95.49
66740;DHT22;53653;52.188;8.602;2023-09-18T00:55:53;18.29;95.33
66740;DHT22;53653;52.188;8.602;2023-09-18T00:58:20;18.29;95.32
66740;DHT22;53653;52.188;8.602;2023-09-18T01:00:45;18.22;95.59
66740;DHT22;53653;52.188;8.602;2023-09-18T01:03:11;18.20;95.56
66740;DHT22;53653;52.188;8.602;2023-09-18T01:05:37;18.16;95.54
66740;DHT22;53653;52.188;8.602;2023-09-18T01:08:03;18.17;95.59
66740;DHT22;53653;52.188;8.602;2023-09-18T01:10:35;18.13;95.53
66740;DHT22;53653;52.188;8.602;2023-09-18T01:13:09;18.13;95.51
66740;DHT22;53653;52.188;8.602;2023-09-18T01:15:49;18.13;95.37
66740;DHT22;53653;52.188;8.602;2023-09-18T01:18:15;18.14;95.11
66740;DHT22;53653;52.188;8.602;2023-09-18T01:20:43;18.17;95.04
66740;DHT22;53653;52.188;8.602;2023-09-18T01:23:09;18.10;95.17
66740;DHT22;53653;52.188;8.602;2023-09-18T01:25:37;18.09;95.24
66740;DHT22;53653;52.188;8.602;2023-09-18T01:28:03;18.13;95.18
66740;DHT22;53653;52.188;8.602;2023-09-18T01:30:29;18.09;95.21
66740;DHT22;53653;52.188;8.602;2023-09-18T01:32:57;18.02;95.41
66740;DHT22;53653;52.188;8.602;2023-09-18T01:35:25;18.02;95.57
66740;DHT22;53653;52.188;8.602;2023-09-18T01:37:59;18.04;95.56
66740;DHT22;53653;52.188;8.602;2023-09-18T01:40:26;17.95;95.68
66740;DHT22;53653;52.188;8.602;2023-09-18T01:42:52;17.92;95.85
66740;DHT22;53653;52.188;8.602;2023-09-18T01:45:18;17.86;95.96
66740;DHT22;53653;52.188;8.602;2023-09-18T01:47:45;17.89;96.09
66740;DHT22;53653;52.188;8.602;2023-09-18T01:50:10;17.89;95.93
66740;DHT22;53653;52.188;8.602;2023-09-18T01:52:36;17.87;95.93
66740;DHT22;53653;52.188;8.602;2023-09-18T01:55:02;17.92;95.88
66740;DHT22;53653;52.188;8.602;2023-09-18T01:57:31;17.90;95.81
66740;DHT22;53653;52.188;8.602;2023-09-18T01:59:57;17.87;95.81
66740;DHT22;53653;52.188;8.602;2023-09-18T02:02:22;17.89;95.78
66740;DHT22;53653;52.188;8.602;2023-09-18T02:04:49;17.89;95.71
66740;DHT22;53653;52.188;8.602;2023-09-18T02:07:15;17.90;95.65
66740;DHT22;53653;52.188;8.602;2023-09-18T02:09:40;17.92;95.56
66740;DHT22;53653;52.188;8.602;2023-09-18T02:12:06;17.92;95.48
66740;DHT22;53653;52.188;8.602;2023-09-18T02:14:32;17.93;95.31
66740;DHT22;53653;52.188;8.602;2023-09-18T02:16:59;17.97;95.11
66740;DHT22;53653;52.188;8.602;2023-09-18T02:19:25;18.00;94.88
66740;DHT22;53653;52.188;8.602;2023-09-18T02:21:51;18.00;94.73
66740;DHT22;53653;52.188;8.602;2023-09-18T02:24:17;17.96;94.88
66740;DHT22;53653;52.188;8.602;2023-09-18T02:26:42;17.95;94.97
66740;DHT22;53653;52.188;8.602;2023-09-18T02:29:08;17.96;94.95
66740;DHT22;53653;52.188;8.602;2023-09-18T02:31:39;17.96;94.81
66740;DHT22;53653;52.188;8.602;2023-09-18T02:34:05;17.97;94.80
66740;DHT22;53653;52.188;8.602;2023-09-18T02:36:31;17.99;94.56
66740;DHT22;53653;52.188;8.602;2023-09-18T02:38:56;18.03;94.44
66740;DHT22;53653;52.188;8.602;2023-09-18T02:41:22;18.07;94.29
66740;DHT22;53653;52.188;8.602;2023-09-18T02:43:47;18.12;94.08
66740;DHT22;53653;52.188;8.602;2023-09-18T02:46:13;18.10;93.99
66740;DHT22;53653;52.188;8.602;2023-09-18T02:48:38;18.14;93.78
66740;DHT22;53653;52.188;8.602;2023-09-18T02:51:05;18.14;93.75
66740;DHT22;53653;52.188;8.602;2023-09-18T02:53:30;18.12;93.70
66740;DHT22;53653;52.188;8.602;2023-09-18T02:55:58;18.10;93.77
66740;DHT22;53653;52.188;8.602;2023-09-18T02:58:24;18.07;93.76
66740;DHT22;53653;52.188;8.602;2023-09-18T03:00:52;18.03;93.86
66740;DHT22;53653;52.188;8.602;2023-09-18T03:03:19;17.97;94.12
66740;DHT22;53653;52.188;8.602;2023-09-18T03:05:44;18.00;94.03
66740;DHT22;53653;52.188;8.602;2023-09-18T03:08:11;17.96;94.09
66740;DHT22;53653;52.188;8.602;2023-09-18T03:10:41;17.95;94.22
66740;DHT22;53653;52.188;8.602;2023-09-18T03:13:08;17.92;94.24
66740;DHT22;53653;52.188;8.602;2023-09-18T03:15:34;17.93;94.23
66740;DHT22;53653;52.188;8.602;2023-09-18T03:18:01;17.96;94.08
66740;DHT22;53653;52.188;8.602;2023-09-18T03:20:28;17.99;94.01
66740;DHT22;53653;52.188;8.602;2023-09-18T03:22:56;17.96;94.02
66740;DHT22;53653;52.188;8.602;2023-09-18T03:25:22;17.96;94.02
66740;DHT22;53653;52.188;8.602;2023-09-18T03:27:50;18.00;93.95
66740;DHT22;53653;52.188;8.602;2023-09-18T03:30:16;18.02;93.80
66740;DHT22;53653;52.188;8.602;2023-09-18T03:32:42;18.00;93.66
66740;DHT22;53653;52.188;8.602;2023-09-18T03:35:10;18.07;93.59
66740;DHT22;53653;52.188;8.602;2023-09-18T03:37:47;18.07;93.70
66740;DHT22;53653;52.188;8.602;2023-09-18T03:40:13;18.09;93.52
66740;DHT22;53653;52.188;8.602;2023-09-18T03:42:38;18.04;93.60
66740;DHT22;53653;52.188;8.602;2023-09-18T03:45:08;18.06;93.36
66740;DHT22;53653;52.188;8.602;2023-09-18T03:47:35;18.16;92.98
66740;DHT22;53653;52.188;8.602;2023-09-18T03:50:04;18.18;92.79
66740;DHT22;53653;52.188;8.602;2023-09-18T03:52:30;18.24;92.47
66740;DHT22;53653;52.188;8.602;2023-09-18T03:54:56;18.26;92.33
66740;DHT22;53653;52.188;8.602;2023-09-18T03:57:21;18.23;92.25
66740;DHT22;53653;52.188;8.602;2023-09-18T03:59:47;18.27;92.23
66740;DHT22;53653;52.188;8.602;2023-09-18T04:02:12;18.26;92.24
66740;DHT22;53653;52.188;8.602;2023-09-18T04:04:38;18.30;91.91
66740;DHT22;53653;52.188;8.602;2023-09-18T04:07:07;18.41;91.65
66740;DHT22;53653;52.188;8.602;2023-09-18T04:09:33;18.45;91.33
66740;DHT22;53653;52.188;8.602;2023-09-18T04:12:00;18.50;91.15
66740;DHT22;53653;52.188;8.602;2023-09-18T04:14:26;18.57;90.77
66740;DHT22;53653;52.188;8.602;2023-09-18T04:16:51;18.64;90.57
66740;DHT22;53653;52.188;8.602;2023-09-18T04:19:17;18.64;90.58
66740;DHT22;53653;52.188;8.602;2023-09-18T04:21:42;18.62;90.56
66740;DHT22;53653;52.188;8.602;2023-09-18T04:24:08;18.72;90.36
66740;DHT22;53653;52.188;8.602;2023-09-18T04:26:33;18.78;90.03
66740;DHT22;53653;52.188;8.602;2023-09-18T04:29:00;19.05;88.79
66740;DHT22;53653;52.188;8.602;2023-09-18T04:31:27;19.23;87.96
66740;DHT22;53653;52.188;8.602;2023-09-18T04:33:53;19.71;85.84
66740;DHT22;53653;52.188;8.602;2023-09-18T04:36:18;19.97;84.71
66740;DHT22;53653;52.188;8.602;2023-09-18T04:38:44;20.05;84.18
66740;DHT22;53653;52.188;8.602;2023-09-18T04:41:10;20.15;83.72
66740;DHT22;53653;52.188;8.602;2023-09-18T04:43:40;20.28;83.16
66740;DHT22;53653;52.188;8.602;2023-09-18T04:46:06;20.22;83.30
66740;DHT22;53653;52.188;8.602;2023-09-18T04:48:32;20.19;83.38
66740;DHT22;53653;52.188;8.602;2023-09-18T04:50:59;20.16;83.53
66740;DHT22;53653;52.188;8.602;2023-09-18T04:53:30;20.15;83.38
66740;DHT22;53653;52.188;8.602;2023-09-18T04:55:56;20.11;83.68
66740;DHT22;53653;52.188;8.602;2023-09-18T04:58:21;20.12;83.59
66740;DHT22;53653;52.188;8.602;2023-09-18T05:00:54;20.11;83.59
66740;DHT22;53653;52.188;8.602;2023-09-18T05:03:20;20.04;83.78
66740;DHT22;53653;52.188;8.602;2023-09-18T05:05:46;20.05;83.81
66740;DHT22;53653;52.188;8.602;2023-09-18T05:08:12;20.02;83.88
66740;DHT22;53653;52.188;8.602;2023-09-18T05:10:37;20.02;83.88
66740;DHT22;53653;52.188;8.602;2023-09-18T05:13:03;20.09;83.47
66740;DHT22;53653;52.188;8.602;2023-09-18T05:15:29;20.16;83.08
66740;DHT22;53653;52.188;8.602;2023-09-18T05:17:55;20.22;82.95
66740;DHT22;53653;52.188;8.602;2023-09-18T05:20:27;20.36;82.24
66740;DHT22;53653;52.188;8.602;2023-09-18T05:22:53;20.45;81.86
66740;DHT22;53653;52.188;8.602;2023-09-18T05:25:19;20.49;81.83
66740;DHT22;53653;52.188;8.602;2023-09-18T05:27:47;20.55;81.43
66740;DHT22;53653;52.188;8.602;2023-09-18T05:30:19;20.57;81.39
66740;DHT22;53653;52.188;8.602;2023-09-18T05:32:47;20.60;81.32
66740;DHT22;53653;52.188;8.602;2023-09-18T05:35:14;20.56;81.55
66740;DHT22;53653;52.188;8.602;2023-09-18T05:37:40;20.56;81.80
66740;DHT22;53653;52.188;8.602;2023-09-18T05:40:07;20.50;81.86
66740;DHT22;53653;52.188;8.602;2023-09-18T05:42:41;20.52;82.38
66740;DHT22;53653;52.188;8.602;2023-09-18T05:45:10;20.43;82.90
66740;DHT22;53653;52.188;8.602;2023-09-18T05:47:36;20.39;83.68
66740;DHT22;53653;52.188;8.602;2023-09-18T05:50:06;20.22;84.92
66740;DHT22;53653;52.188;8.602;2023-09-18T05:52:33;20.01;86.72
66740;DHT22;53653;52.188;8.602;2023-09-18T05:54:59;19.94;87.45
66740;DHT22;53653;52.188;8.602;2023-09-18T05:57:25;19.89;87.43
66740;DHT22;53653;52.188;8.602;2023-09-18T05:59:51;19.84;87.93
66740;DHT22;53653;52.188;8.602;2023-09-18T06:02:17;19.84;88.38
66740;DHT22;53653;52.188;8.602;2023-09-18T06:04:43;19.82;88.23
66740;DHT22;53653;52.188;8.602;2023-09-18T06:07:08;19.78;88.28
66740;DHT22;53653;52.188;8.602;2023-09-18T06:09:34;19.78;88.65
66740;DHT22;53653;52.188;8.602;2023-09-18T06:11:59;19.80;88.17
66740;DHT22;53653;52.188;8.602;2023-09-18T06:14:25;19.80;87.94
66740;DHT22;53653;52.188;8.602;2023-09-18T06:16:51;19.81;88.08
66740;DHT22;53653;52.188;8.602;2023-09-18T06:19:16;19.77;87.75
66740;DHT22;53653;52.188;8.602;2023-09-18T06:21:43;19.78;87.56
66740;DHT22;53653;52.188;8.602;2023-09-18T06:24:09;19.82;88.13
66740;DHT22;53653;52.188;8.602;2023-09-18T06:26:34;19.78;87.57
66740;DHT22;53653;52.188;8.602;2023-09-18T06:29:01;19.82;87.02
66740;DHT22;53653;52.188;8.602;2023-09-18T06:31:27;19.82;87.51
66740;DHT22;53653;52.188;8.602;2023-09-18T06:33:53;19.85;87.75
66740;DHT22;53653;52.188;8.602;2023-09-18T06:36:18;19.89;87.66
66740;DHT22;53653;52.188;8.602;2023-09-18T06:38:44;19.95;86.97
66740;DHT22;53653;52.188;8.602;2023-09-18T06:41:09;20.01;86.52
66740;DHT22;53653;52.188;8.602;2023-09-18T06:43:35;20.04;86.16
66740;DHT22;53653;52.188;8.602;2023-09-18T06:46:01;20.08;86.32
66740;DHT22;53653;52.188;8.602;2023-09-18T06:48:26;20.11;86.09
66740;DHT22;53653;52.188;8.602;2023-09-18T06:50:51;20.18;86.25
66740;DHT22;53653;52.188;8.602;2023-09-18T06:53:17;20.19;85.82
66740;DHT22;53653;52.188;8.602;2023-09-18T06:55:42;20.22;85.63
66740;DHT22;53653;52.188;8.602;2023-09-18T06:58:08;20.30;85.51
66740;DHT22;53653;52.188;8.602;2023-09-18T07:00:33;20.37;85.29
66740;DHT22;53653;52.188;8.602;2023-09-18T07:02:59;20.37;85.53
66740;DHT22;53653;52.188;8.602;2023-09-18T07:05:25;20.50;85.21
66740;DHT22;53653;52.188;8.602;2023-09-18T07:07:50;20.53;85.32
66740;DHT22;53653;52.188;8.602;2023-09-18T07:10:16;20.55;85.60
66740;DHT22;53653;52.188;8.602;2023-09-18T07:12:41;20.60;85.22
66740;DHT22;53653;52.188;8.602;2023-09-18T07:15:07;20.67;85.06
66740;DHT22;53653;52.188;8.602;2023-09-18T07:17:33;20.70;84.96
66740;DHT22;53653;52.188;8.602;2023-09-18T07:20:00;20.73;84.86
66740;DHT22;53653;52.188;8.602;2023-09-18T07:22:26;20.73;84.97
66740;DHT22;53653;52.188;8.602;2023-09-18T07:24:52;20.70;85.18
66740;DHT22;53653;52.188;8.602;2023-09-18T07:27:17;20.70;85.36
66740;DHT22;53653;52.188;8.602;2023-09-18T07:29:43;20.77;85.16
66740;DHT22;53653;52.188;8.602;2023-09-18T07:32:09;20.87;85.04
66740;DHT22;53653;52.188;8.602;2023-09-18T07:34:35;20.98;84.84
66740;DHT22;53653;52.188;8.602;2023-09-18T07:37:01;20.95;84.84
66740;DHT22;53653;52.188;8.602;2023-09-18T07:39:26;21.25;84.57
66740;DHT22;53653;52.188;8.602;2023-09-18T07:41:52;21.52;83.59
66740;DHT22;53653;52.188;8.602;2023-09-18T07:44:21;21.49;82.58
66740;DHT22;53653;52.188;8.602;2023-09-18T07:46:47;21.69;81.26
66740;DHT22;53653;52.188;8.602;2023-09-18T07:49:13;21.96;80.16
66740;DHT22;53653;52.188;8.602;2023-09-18T07:51:39;22.25;78.77
66740;DHT22;53653;52.188;8.602;2023-09-18T07:54:07;22.51;76.96
66740;DHT22;53653;52.188;8.602;2023-09-18T07:56:32;22.65;75.40
66740;DHT22;53653;52.188;8.602;2023-09-18T07:59:00;22.92;73.80
66740;DHT22;53653;52.188;8.602;2023-09-18T08:01:26;23.26;73.05
66740;DHT22;53653;52.188;8.602;2023-09-18T08:03:53;23.37;72.14
66740;DHT22;53653;52.188;8.602;2023-09-18T08:06:18;23.43;72.34
66740;DHT22;53653;52.188;8.602;2023-09-18T08:08:45;23.26;72.24
66740;DHT22;53653;52.188;8.602;2023-09-18T08:11:10;23.17;72.53
66740;DHT22;53653;52.188;8.602;2023-09-18T08:13:36;23.16;72.62
66740;DHT22;53653;52.188;8.602;2023-09-18T08:16:05;22.96;73.10
66740;DHT22;53653;52.188;8.602;2023-09-18T08:18:31;22.99;73.03
66740;DHT22;53653;52.188;8.602;2023-09-18T08:20:57;22.86;73.11
66740;DHT22;53653;52.188;8.602;2023-09-18T08:23:24;22.82;73.18
66740;DHT22;53653;52.188;8.602;2023-09-18T08:25:50;22.67;73.34
66740;DHT22;53653;52.188;8.602;2023-09-18T08:28:17;22.61;73.36
66740;DHT22;53653;52.188;8.602;2023-09-18T08:30:42;22.61;73.60
66740;DHT22;53653;52.188;8.602;2023-09-18T08:33:13;22.65;73.36
66740;DHT22;53653;52.188;8.602;2023-09-18T08:35:39;22.54;73.44
66740;DHT22;53653;52.188;8.602;2023-09-18T08:38:05;22.54;73.92
66740;DHT22;53653;52.188;8.602;2023-09-18T08:40:32;22.47;74.00
66740;DHT22;53653;52.188;8.602;2023-09-18T08:42:58;22.54;73.92
66740;DHT22;53653;52.188;8.602;2023-09-18T08:45:35;22.51;73.82
66740;DHT22;53653;52.188;8.602;2023-09-18T08:48:03;22.47;74.03
66740;DHT22;53653;52.188;8.602;2023-09-18T08:50:29;22.43;74.20
66740;DHT22;53653;52.188;8.602;2023-09-18T08:52:55;22.43;74.30
66740;DHT22;53653;52.188;8.602;2023-09-18T08:55:21;22.31;74.10
66740;DHT22;53653;52.188;8.602;2023-09-18T08:57:49;22.31;74.16
66740;DHT22;53653;52.188;8.602;2023-09-18T09:00:15;22.33;74.50
66740;DHT22;53653;52.188;8.602;2023-09-18T09:02:44;22.37;74.66
66740;DHT22;53653;52.188;8.602;2023-09-18T09:05:10;22.38;74.24
66740;DHT22;53653;52.188;8.602;2023-09-18T09:07:36;22.37;74.48
66740;DHT22;53653;52.188;8.602;2023-09-18T09:10:01;22.40;74.74
66740;DHT22;53653;52.188;8.602;2023-09-18T09:12:52;22.49;74.68
66740;DHT22;53653;52.188;8.602;2023-09-18T09:15:27;22.49;74.27
66740;DHT22;53653;52.188;8.602;2023-09-18T09:18:05;22.45;74.11
66740;DHT22;53653;52.188;8.602;2023-09-18T09:20:32;22.47;74.12
66740;DHT22;53653;52.188;8.602;2023-09-18T09:23:02;22.36;74.22
66740;DHT22;53653;52.188;8.602;2023-09-18T09:25:30;22.36;74.74
66740;DHT22;53653;52.188;8.602;2023-09-18T09:28:03;22.41;74.65
66740;DHT22;53653;52.188;8.602;2023-09-18T09:30:31;22.43;74.32
66740;DHT22;53653;52.188;8.602;2023-09-18T09:32:58;22.38;74.49
66740;DHT22;53653;52.188;8.602;2023-09-18T09:35:29;22.44;74.48
66740;DHT22;53653;52.188;8.602;2023-09-18T09:38:09;22.58;74.13
66740;DHT22;53653;52.188;8.602;2023-09-18T09:40:38;22.69;73.13
66740;DHT22;53653;52.188;8.602;2023-09-18T09:43:08;22.68;73.24
66740;DHT22;53653;52.188;8.602;2023-09-18T09:45:34;22.57;73.43
66740;DHT22;53653;52.188;8.602;2023-09-18T09:48:04;22.67;73.09
66740;DHT22;53653;52.188;8.602;2023-09-18T09:50:31;22.62;73.41
66740;DHT22;53653;52.188;8.602;2023-09-18T09:52:57;22.65;73.57
66740;DHT22;53653;52.188;8.602;2023-09-18T09:55:28;22.55;74.14
66740;DHT22;53653;52.188;8.602;2023-09-18T09:57:58;22.57;74.44
66740;DHT22;53653;52.188;8.602;2023-09-18T10:00:33;22.65;73.69
66740;DHT22;53653;52.188;8.602;2023-09-18T10:03:10;22.69;73.96
66740;DHT22;53653;52.188;8.602;2023-09-18T10:05:38;22.79;73.02
66740;DHT22;53653;52.188;8.602;2023-09-18T10:08:11;22.73;72.97
66740;DHT22;53653;52.188;8.602;2023-09-18T10:10:40;22.58;73.59
66740;DHT22;53653;52.188;8.602;2023-09-18T10:13:47;22.55;73.69
66740;DHT22;53653;52.188;8.602;2023-09-18T10:16:17;22.65;73.72
66740;DHT22;53653;52.188;8.602;2023-09-18T10:19:14;22.65;73.59
66740;DHT22;53653;52.188;8.602;2023-09-18T10:22:00;22.78;72.98
66740;DHT22;53653;52.188;8.602;2023-09-18T10:24:34;22.76;72.56
66740;DHT22;53653;52.188;8.602;2023-09-18T10:27:03;22.91;72.15
66740;DHT22;53653;52.188;8.602;2023-09-18T10:29:32;23.17;72.18
66740;DHT22;53653;52.188;8.602;2023-09-18T10:31:58;23.36;71.18
66740;DHT22;53653;52.188;8.602;2023-09-18T10:34:24;23.37;71.13
66740;DHT22;53653;52.188;8.602;2023-09-18T10:36:54;23.24;71.81
66740;DHT22;53653;52.188;8.602;2023-09-18T10:39:20;23.23;72.03
66740;DHT22;53653;52.188;8.602;2023-09-18T10:41:55;23.12;71.76
66740;DHT22;53653;52.188;8.602;2023-09-18T10:44:23;22.98;72.38
66740;DHT22;53653;52.188;8.602;2023-09-18T10:46:50;22.99;72.59
66740;DHT22;53653;52.188;8.602;2023-09-18T10:49:21;23.07;72.46
66740;DHT22;53653;52.188;8.602;2023-09-18T10:51:47;23.17;71.82
66740;DHT22;53653;52.188;8.602;2023-09-18T10:54:20;23.06;71.61
66740;DHT22;53653;52.188;8.602;2023-09-18T10:56:47;23.12;71.40
66740;DHT22;53653;52.188;8.602;2023-09-18T10:59:14;23.07;71.28
66740;DHT22;53653;52.188;8.602;2023-09-18T11:01:41;23.16;71.26
66740;DHT22;53653;52.188;8.602;2023-09-18T11:04:07;23.23;70.74
66740;DHT22;53653;52.188;8.602;2023-09-18T11:09:20;23.15;70.80
66740;DHT22;53653;52.188;8.602;2023-09-18T11:11:46;23.13;70.52
66740;DHT22;53653;52.188;8.602;2023-09-18T11:14:14;23.02;70.70
66740;DHT22;53653;52.188;8.602;2023-09-18T11:16:40;22.98;71.26
66740;DHT22;53653;52.188;8.602;2023-09-18T11:19:11;23.07;70.44
66740;DHT22;53653;52.188;8.602;2023-09-18T11:21:37;23.00;71.33
66740;DHT22;53653;52.188;8.602;2023-09-18T11:24:05;23.02;71.20
66740;DHT22;53653;52.188;8.602;2023-09-18T11:26:36;23.00;70.68
66740;DHT22;53653;52.188;8.602;2023-09-18T11:29:05;23.12;70.75
66740;DHT22;53653;52.188;8.602;2023-09-18T11:31:53;23.20;70.76
66740;DHT22;53653;52.188;8.602;2023-09-18T11:34:27;23.22;70.80
66740;DHT22;53653;52.188;8.602;2023-09-18T11:37:20;23.23;70.77
66740;DHT22;53653;52.188;8.602;2023-09-18T11:39:47;23.22;70.70
66740;DHT22;53653;52.188;8.602;2023-09-18T11:42:17;23.28;70.68
66740;DHT22;53653;52.188;8.602;2023-09-18T11:44:44;23.19;70.12
66740;DHT22;53653;52.188;8.602;2023-09-18T11:47:14;23.43;70.10
66740;DHT22;53653;52.188;8.602;2023-09-18T11:49:53;24.39;67.81
66740;DHT22;53653;52.188;8.602;2023-09-18T11:52:24;24.63;66.89
66740;DHT22;53653;52.188;8.602;2023-09-18T11:54:50;24.74;65.54
66740;DHT22;53653;52.188;8.602;2023-09-18T11:57:19;24.98;65.23
66740;DHT22;53653;52.188;8.602;2023-09-18T11:59:46;25.39;64.73
66740;DHT22;53653;52.188;8.602;2023-09-18T12:02:13;25.25;63.94
66740;DHT22;53653;52.188;8.602;2023-09-18T12:04:47;25.14;64.34
66740;DHT22;53653;52.188;8.602;2023-09-18T12:07:13;24.92;64.73
66740;DHT22;53653;52.188;8.602;2023-09-18T12:09:39;25.17;63.76
66740;DHT22;53653;52.188;8.602;2023-09-18T12:12:07;25.27;64.15
66740;DHT22;53653;52.188;8.602;2023-09-18T12:14:34;24.80;65.25
66740;DHT22;53653;52.188;8.602;2023-09-18T12:17:03;24.70;65.08
66740;DHT22;53653;52.188;8.602;2023-09-18T12:19:30;24.73;64.66
66740;DHT22;53653;52.188;8.602;2023-09-18T12:21:56;24.84;64.02
66740;DHT22;53653;52.188;8.602;2023-09-18T12:24:25;24.90;64.86
66740;DHT22;53653;52.188;8.602;2023-09-18T12:26:52;24.59;65.49
66740;DHT22;53653;52.188;8.602;2023-09-18T12:29:18;24.59;65.58
66740;DHT22;53653;52.188;8.602;2023-09-18T12:31:44;24.28;65.54
66740;DHT22;53653;52.188;8.602;2023-09-18T12:34:20;24.06;65.82
66740;DHT22;53653;52.188;8.602;2023-09-18T12:36:47;24.15;65.88
66740;DHT22;53653;52.188;8.602;2023-09-18T12:39:16;24.15;65.90
66740;DHT22;53653;52.188;8.602;2023-09-18T12:41:46;24.15;66.24
66740;DHT22;53653;52.188;8.602;2023-09-18T12:44:12;24.23;65.66
66740;DHT22;53653;52.188;8.602;2023-09-18T12:46:40;24.30;66.02
66740;DHT22;53653;52.188;8.602;2023-09-18T12:51:42;24.32;64.72
66740;DHT22;53653;52.188;8.602;2023-09-18T12:54:07;24.39;65.18
66740;DHT22;53653;52.188;8.602;2023-09-18T12:56:40;24.42;65.44
66740;DHT22;53653;52.188;8.602;2023-09-18T12:59:05;24.55;64.71
66740;DHT22;53653;52.188;8.602;2023-09-18T13:01:31;24.94;63.54
66740;DHT22;53653;52.188;8.602;2023-09-18T13:03:56;25.03;63.29
66740;DHT22;53653;52.188;8.602;2023-09-18T13:06:22;25.53;60.89
66740;DHT22;53653;52.188;8.602;2023-09-18T13:08:49;26.01;60.56
66740;DHT22;53653;52.188;8.602;2023-09-18T13:11:18;26.01;59.43
66740;DHT22;53653;52.188;8.602;2023-09-18T13:13:44;26.27;59.56
66740;DHT22;53653;52.188;8.602;2023-09-18T13:16:10;26.10;58.08
66740;DHT22;53653;52.188;8.602;2023-09-18T13:18:36;26.03;58.99
66740;DHT22;53653;52.188;8.602;2023-09-18T13:21:14;25.98;59.59
66740;DHT22;53653;52.188;8.602;2023-09-18T13:23:40;26.08;59.08
66740;DHT22;53653;52.188;8.602;2023-09-18T13:26:07;25.92;59.55
66740;DHT22;53653;52.188;8.602;2023-09-18T13:28:36;26.12;59.82
66740;DHT22;53653;52.188;8.602;2023-09-18T13:31:03;26.13;59.32
66740;DHT22;53653;52.188;8.602;2023-09-18T13:33:38;26.08;58.93
66740;DHT22;53653;52.188;8.602;2023-09-18T13:36:04;26.06;58.62
66740;DHT22;53653;52.188;8.602;2023-09-18T13:38:30;25.80;60.19
66740;DHT22;53653;52.188;8.602;2023-09-18T13:40:55;25.75;58.98
66740;DHT22;53653;52.188;8.602;2023-09-18T13:43:21;25.70;59.59
66740;DHT22;53653;52.188;8.602;2023-09-18T13:45:49;25.62;59.99
66740;DHT22;53653;52.188;8.602;2023-09-18T13:48:17;25.79;60.11
66740;DHT22;53653;52.188;8.602;2023-09-18T13:50:43;25.76;59.41
66740;DHT22;53653;52.188;8.602;2023-09-18T13:53:09;25.77;60.10
66740;DHT22;53653;52.188;8.602;2023-09-18T13:55:35;25.70;60.57
66740;DHT22;53653;52.188;8.602;2023-09-18T13:58:01;26.12;60.56
66740;DHT22;53653;52.188;8.602;2023-09-18T14:00:28;26.04;59.80
66740;DHT22;53653;52.188;8.602;2023-09-18T14:02:54;25.82;59.23
66740;DHT22;53653;52.188;8.602;2023-09-18T14:05:19;25.65;60.07
66740;DHT22;53653;52.188;8.602;2023-09-18T14:07:45;25.68;60.21
66740;DHT22;53653;52.188;8.602;2023-09-18T14:10:11;25.86;59.44
66740;DHT22;53653;52.188;8.602;2023-09-18T14:12:37;25.52;61.40
66740;DHT22;53653;52.188;8.602;2023-09-18T14:15:08;25.25;62.03
66740;DHT22;53653;52.188;8.602;2023-09-18T14:17:34;24.94;62.97
66740;DHT22;53653;52.188;8.602;2023-09-18T14:20:00;24.67;63.77
66740;DHT22;53653;52.188;8.602;2023-09-18T14:22:26;24.77;64.06
66740;DHT22;53653;52.188;8.602;2023-09-18T14:24:52;24.57;64.42
66740;DHT22;53653;52.188;8.602;2023-09-18T14:27:17;24.43;63.61
66740;DHT22;53653;52.188;8.602;2023-09-18T14:29:43;24.32;64.95
66740;DHT22;53653;52.188;8.602;2023-09-18T14:32:09;24.36;64.86
66740;DHT22;53653;52.188;8.602;2023-09-18T14:34:35;24.16;67.76
66740;DHT22;53653;52.188;8.602;2023-09-18T14:37:02;24.00;69.99
66740;DHT22;53653;52.188;8.602;2023-09-18T14:39:34;23.68;71.22
66740;DHT22;53653;52.188;8.602;2023-09-18T14:42:00;23.50;71.41
66740;DHT22;53653;52.188;8.602;2023-09-18T14:44:26;23.55;72.86
66740;DHT22;53653;52.188;8.602;2023-09-18T14:46:53;23.71;72.22
66740;DHT22;53653;52.188;8.602;2023-09-18T14:49:19;23.92;71.40
66740;DHT22;53653;52.188;8.602;2023-09-18T14:51:45;24.02;71.99
66740;DHT22;53653;52.188;8.602;2023-09-18T14:54:11;24.01;71.49
66740;DHT22;53653;52.188;8.602;2023-09-18T14:56:37;24.06;71.53
66740;DHT22;53653;52.188;8.602;2023-09-18T14:59:03;24.02;71.44
66740;DHT22;53653;52.188;8.602;2023-09-18T15:01:28;23.94;70.14
66740;DHT22;53653;52.188;8.602;2023-09-18T15:03:54;24.11;69.61
66740;DHT22;53653;52.188;8.602;2023-09-18T15:06:20;24.28;68.42
66740;DHT22;53653;52.188;8.602;2023-09-18T15:08:46;24.40;68.87
66740;DHT22;53653;52.188;8.602;2023-09-18T15:11:12;24.25;68.39
66740;DHT22;53653;52.188;8.602;2023-09-18T15:13:38;24.11;66.92
66740;DHT22;53653;52.188;8.602;2023-09-18T15:16:04;24.01;67.26
66740;DHT22;53653;52.188;8.602;2023-09-18T15:18:31;24.02;67.40
66740;DHT22;53653;52.188;8.602;2023-09-18T15:20:56;23.95;68.20
66740;DHT22;53653;52.188;8.602;2023-09-18T15:23:23;24.00;68.78
66740;DHT22;53653;52.188;8.602;2023-09-18T15:25:52;24.11;68.74
66740;DHT22;53653;52.188;8.602;2023-09-18T15:28:21;23.94;68.08
66740;DHT22;53653;52.188;8.602;2023-09-18T15:30:49;23.85;68.75
66740;DHT22;53653;52.188;8.602;2023-09-18T15:33:15;23.82;67.99
66740;DHT22;53653;52.188;8.602;2023-09-18T15:35:43;23.84;67.05
66740;DHT22;53653;52.188;8.602;2023-09-18T15:38:08;23.78;68.26